createdAt,value
2018-07-22T00:02:13.210Z,96514.89
2018-07-22T00:05:37.872Z,96514.52
2018-07-22T00:09:02.608Z,96511.52
2018-07-22T00:12:27.402Z,96512.27
2018-07-22T00:15:52.128Z,96513.64
2018-07-22T00:19:16.822Z,96510.81
2018-07-22T00:22:41.561Z,96516.91
2018-07-22T00:26:06.312Z,96512.84
2018-07-22T00:29:31.031Z,96509.42
2018-07-22T00:32:55.796Z,96505.11
2018-07-22T00:36:20.586Z,96503.13
2018-07-22T00:39:45.316Z,96504.30
2018-07-22T00:43:10.104Z,96507.14
2018-07-22T00:46:34.870Z,96504.98
2018-07-22T00:49:59.535Z,96503.48
2018-07-22T00:53:24.330Z,96504.80
2018-07-22T00:56:49.002Z,96503.30
2018-07-22T01:00:13.800Z,96498.82
2018-07-22T01:03:38.457Z,96499.88
2018-07-22T01:07:03.210Z,96496.63
2018-07-22T01:10:27.896Z,96493.69
2018-07-22T01:13:52.583Z,96495.61
2018-07-22T01:17:17.279Z,96494.84
2018-07-22T01:20:41.987Z,96491.94
2018-07-22T01:24:06.768Z,96498.39
2018-07-22T01:27:31.135Z,96498.11
2018-07-22T01:30:55.836Z,96495.95
2018-07-22T01:34:20.508Z,96492.39
2018-07-22T01:37:45.153Z,96495.44
2018-07-22T01:41:09.599Z,96493.47
2018-07-22T01:44:34.263Z,96495.16
2018-07-22T01:47:58.922Z,96495.24
2018-07-22T01:51:23.615Z,96495.09
2018-07-22T01:54:48.281Z,96495.24
2018-07-22T01:58:12.968Z,96497.02
2018-07-22T02:01:37.816Z,96498.45
2018-07-22T02:05:02.460Z,96499.91
2018-07-22T02:08:26.818Z,96501.16
2018-07-22T02:11:51.454Z,96501.14
2018-07-22T02:15:16.106Z,96509.98
2018-07-22T02:18:40.725Z,96512.25
2018-07-22T02:22:05.470Z,96512.16
2018-07-22T02:25:30.163Z,96509.92
2018-07-22T02:28:54.844Z,96513.34
2018-07-22T02:32:19.472Z,96507.88
2018-07-22T02:35:44.179Z,96502.30
2018-07-22T02:39:11.970Z,96508.34
2018-07-22T02:42:36.671Z,96514.32
2018-07-22T02:46:01.354Z,96506.59
2018-07-22T02:49:25.964Z,96507.86
2018-07-22T02:52:50.656Z,96509.80
2018-07-22T02:56:15.355Z,96508.42
2018-07-22T02:59:40.053Z,96504.69
2018-07-22T03:03:04.768Z,96512.39
2018-07-22T03:06:29.416Z,96512.70
2018-07-22T03:09:54.093Z,96511.91
2018-07-22T03:13:18.723Z,96508.23
2018-07-22T03:16:43.411Z,96511.22
2018-07-22T03:20:08.075Z,96517.41
2018-07-22T03:23:32.780Z,96514.03
2018-07-22T03:26:57.419Z,96510.70
2018-07-22T03:30:22.142Z,96511.91
2018-07-22T03:33:46.766Z,96511.47
2018-07-22T03:37:11.432Z,96516.08
2018-07-22T03:40:36.144Z,96509.20
2018-07-22T03:44:00.868Z,96515.69
2018-07-22T03:47:25.677Z,96512.52
2018-07-22T03:50:49.947Z,96519.78
2018-07-22T03:54:14.730Z,96513.67
2018-07-22T03:57:39.433Z,96521.20
2018-07-22T04:01:04.232Z,96531.80
2018-07-22T04:04:28.972Z,96526.40
2018-07-22T04:07:53.254Z,96527.16
2018-07-22T04:11:17.884Z,96528.59
2018-07-22T04:14:42.536Z,96527.83
2018-07-22T04:18:07.326Z,96529.98
2018-07-22T04:21:32.108Z,96541.20
2018-07-22T04:24:56.774Z,96533.95
2018-07-22T04:28:21.436Z,96535.02
2018-07-22T04:31:46.058Z,96539.77
2018-07-22T04:35:10.756Z,96536.91
2018-07-22T04:38:35.524Z,96534.66
2018-07-22T04:42:00.236Z,96536.09
2018-07-22T04:45:24.874Z,96541.55
2018-07-22T04:48:49.536Z,96546.30
2018-07-22T04:52:14.232Z,96541.88
2018-07-22T04:55:38.882Z,96541.20
2018-07-22T04:59:03.503Z,96551.06
2018-07-22T05:02:28.161Z,96546.91
2018-07-22T05:05:52.819Z,96561.76
2018-07-22T05:09:17.499Z,96559.39
2018-07-22T05:12:42.130Z,96562.83
2018-07-22T05:16:06.852Z,96564.17
2018-07-22T05:19:31.508Z,96557.84
2018-07-22T05:22:56.146Z,96556.30
2018-07-22T05:26:20.842Z,96558.09
2018-07-22T05:29:45.556Z,96557.13
2018-07-22T05:33:10.240Z,96565.69
2018-07-22T05:36:34.874Z,96573.52
2018-07-22T05:39:59.566Z,96579.06
2018-07-22T05:43:24.240Z,96582.52
2018-07-22T05:46:48.892Z,96577.52
2018-07-22T05:50:13.637Z,96585.97
2018-07-22T05:53:38.540Z,96577.91
2018-07-22T05:57:03.210Z,96570.91
2018-07-22T06:00:28.816Z,96573.31
2018-07-22T06:03:53.587Z,96577.08
2018-07-22T06:07:18.332Z,96573.39
2018-07-22T06:10:43.073Z,96579.13
2018-07-22T06:14:08.369Z,96581.59
2018-07-22T06:17:33.178Z,96582.27
2018-07-22T06:20:57.810Z,96576.57
2018-07-22T06:24:22.516Z,96581.91
2018-07-22T06:27:47.307Z,96584.07
2018-07-22T06:31:11.934Z,96583.80
2018-07-22T06:34:36.929Z,96584.95
2018-07-22T06:38:01.667Z,96584.05
2018-07-22T06:41:26.532Z,96589.31
2018-07-22T06:44:51.462Z,96586.63
2018-07-22T06:48:16.258Z,96586.59
2018-07-22T06:51:41.090Z,96583.77
2018-07-22T06:55:05.932Z,96576.55
2018-07-22T06:58:30.756Z,96573.98
2018-07-22T07:01:55.565Z,96575.91
2018-07-22T07:05:20.225Z,96580.31
2018-07-22T07:08:44.910Z,96578.36
2018-07-22T07:12:09.778Z,96576.71
2018-07-22T07:15:34.504Z,96576.61
2018-07-22T07:18:59.140Z,96574.27
2018-07-22T07:22:23.852Z,96578.69
2018-07-22T07:25:48.598Z,96573.18
2018-07-22T07:29:13.311Z,96575.05
2018-07-22T07:32:38.006Z,96575.89
2018-07-22T07:36:02.717Z,96570.69
2018-07-22T07:39:27.400Z,96577.08
2018-07-22T07:42:52.104Z,96579.97
2018-07-22T07:46:16.849Z,96578.50
2018-07-22T07:49:42.270Z,96587.42
2018-07-22T07:53:06.969Z,96577.67
2018-07-22T07:56:31.696Z,96578.52
2018-07-22T07:59:56.688Z,96575.32
2018-07-22T08:03:21.320Z,96584.87
2018-07-22T08:06:45.998Z,96580.41
2018-07-22T08:10:10.640Z,96583.29
2018-07-22T08:13:35.368Z,96583.20
2018-07-22T08:17:00.061Z,96576.02
2018-07-22T08:20:24.707Z,96571.55
2018-07-22T08:23:49.360Z,96583.02
2018-07-22T08:27:14.090Z,96578.19
2018-07-22T08:30:38.806Z,96572.67
2018-07-22T08:34:04.129Z,96566.14
2018-07-22T08:37:28.784Z,96575.62
2018-07-22T08:40:53.484Z,96575.38
2018-07-22T08:44:18.208Z,96567.50
2018-07-22T08:47:42.935Z,96568.20
2018-07-22T08:51:07.300Z,96572.34
2018-07-22T08:54:32.047Z,96567.46
2018-07-22T08:57:56.749Z,96575.75
2018-07-22T09:01:21.471Z,96577.86
2018-07-22T09:04:46.172Z,96572.63
2018-07-22T09:08:10.851Z,96580.31
2018-07-22T09:11:35.655Z,96573.22
2018-07-22T09:15:00.324Z,96573.91
2018-07-22T09:18:24.965Z,96578.39
2018-07-22T09:21:49.657Z,96580.36
2018-07-22T09:25:14.406Z,96577.42
2018-07-22T09:28:39.006Z,96582.05
2018-07-22T09:32:03.730Z,96594.60
2018-07-22T09:35:28.407Z,96591.67
2018-07-22T09:38:52.876Z,96586.66
2018-07-22T09:42:18.277Z,96588.77
2018-07-22T09:45:45.250Z,96586.09
2018-07-22T09:49:10.498Z,96588.52
2018-07-22T09:52:35.549Z,96591.41
2018-07-22T09:56:01.221Z,96586.42
2018-07-22T09:59:27.084Z,96586.53
2018-07-22T10:02:52.620Z,96587.14
2018-07-22T10:06:18.738Z,96579.83
2018-07-22T10:09:44.379Z,96579.13
2018-07-22T10:13:10.071Z,96575.84
2018-07-22T10:16:35.741Z,96572.33
2018-07-22T10:20:00.651Z,96572.91
2018-07-22T10:23:29.499Z,96567.14
2018-07-22T10:26:54.805Z,96567.66
2018-07-22T10:30:21.422Z,96563.56
2018-07-22T10:33:46.332Z,96568.23
2018-07-22T10:37:11.086Z,96556.19
2018-07-22T10:40:35.745Z,96558.18
2018-07-22T10:44:00.461Z,96571.84
2018-07-22T10:47:25.162Z,96566.34
2018-07-22T10:50:49.859Z,96562.45
2018-07-22T10:54:14.548Z,96571.31
2018-07-22T10:57:38.961Z,96568.02
2018-07-22T11:01:03.681Z,96571.73
2018-07-22T11:04:28.424Z,96566.09
2018-07-22T11:07:53.148Z,96572.27
2018-07-22T11:11:17.830Z,96572.16
2018-07-22T11:14:42.506Z,96575.00
2018-07-22T11:18:07.320Z,96580.59
2018-07-22T11:21:32.037Z,96567.73
2018-07-22T11:24:56.718Z,96566.84
2018-07-22T11:28:21.394Z,96572.09
2018-07-22T11:31:46.164Z,96578.80
2018-07-22T11:35:10.832Z,96575.22
2018-07-22T11:38:35.526Z,96571.04
2018-07-22T11:41:59.870Z,96571.53
2018-07-22T11:45:24.606Z,96570.92
2018-07-22T11:48:48.929Z,96570.19
2018-07-22T11:52:13.655Z,96570.59
2018-07-22T11:55:38.014Z,96575.06
2018-07-22T11:59:02.367Z,96563.45
2018-07-22T12:02:26.652Z,96566.09
2018-07-22T12:05:51.380Z,96570.87
2018-07-22T12:09:16.170Z,96567.34
2018-07-22T12:12:41.345Z,96567.36
2018-07-22T12:16:06.173Z,96567.61
2018-07-22T12:19:30.885Z,96568.94
2018-07-22T12:22:55.598Z,96565.02
2018-07-22T12:26:20.275Z,96562.16
2018-07-22T12:29:44.966Z,96563.86
2018-07-22T12:33:09.663Z,96558.03
2018-07-22T12:36:34.771Z,96558.20
2018-07-22T12:39:59.515Z,96555.86
2018-07-22T12:43:23.885Z,96549.38
2018-07-22T12:46:48.538Z,96540.67
2018-07-22T12:50:13.346Z,96545.53
2018-07-22T12:53:38.082Z,96543.88
2018-07-22T12:57:02.764Z,96534.88
2018-07-22T13:00:27.048Z,96533.44
2018-07-22T13:03:51.872Z,96525.55
2018-07-22T13:07:17.420Z,96527.99
2018-07-22T13:10:41.792Z,96526.42
2018-07-22T13:14:06.954Z,96524.80
2018-07-22T13:17:31.725Z,96521.88
2018-07-22T13:20:56.358Z,96520.38
2018-07-22T13:24:21.055Z,96516.46
2018-07-22T13:27:45.708Z,96512.44
2018-07-22T13:31:10.352Z,96508.09
2018-07-22T13:34:35.137Z,96502.86
2018-07-22T13:37:59.879Z,96513.84
2018-07-22T13:41:24.480Z,96511.02
2018-07-22T13:44:49.181Z,96510.37
2018-07-22T13:48:13.839Z,96515.41
2018-07-22T13:51:38.144Z,96516.89
2018-07-22T13:55:03.407Z,96522.11
2018-07-22T13:58:29.050Z,96513.19
2018-07-22T14:01:53.516Z,96515.30
2018-07-22T14:05:18.216Z,96518.11
2018-07-22T14:08:43.092Z,96520.77
2018-07-22T14:12:07.655Z,96520.61
2018-07-22T14:15:33.458Z,96517.78
2018-07-22T14:19:00.568Z,96520.93
2018-07-22T14:22:25.938Z,96514.79
2018-07-22T14:25:52.872Z,96518.94
2018-07-22T14:29:18.768Z,96512.16
2018-07-22T14:32:45.314Z,96512.13
2018-07-22T14:36:10.002Z,96507.85
2018-07-22T14:39:34.825Z,96508.53
2018-07-22T14:42:59.685Z,96509.47
2018-07-22T14:46:25.500Z,96510.48
2018-07-22T14:49:50.487Z,96510.08
2018-07-22T14:53:15.371Z,96509.02
2018-07-22T14:56:40.066Z,96504.35
2018-07-22T15:00:05.368Z,96511.50
2018-07-22T15:03:30.044Z,96508.41
2018-07-22T15:06:54.727Z,96509.83
2018-07-22T15:10:19.481Z,96505.86
2018-07-22T15:13:44.276Z,96507.69
2018-07-22T15:17:09.049Z,96508.42
2018-07-22T15:20:33.837Z,96508.46
2018-07-22T15:23:58.610Z,96511.15
2018-07-22T15:27:23.057Z,96505.84
2018-07-22T15:30:47.791Z,96510.72
2018-07-22T15:34:12.578Z,96505.44
2018-07-22T15:37:38.380Z,96505.28
2018-07-22T15:41:12.089Z,96500.20
2018-07-22T15:44:37.455Z,96496.78
2018-07-22T15:48:01.836Z,96503.09
2018-07-22T15:51:26.624Z,96491.53
2018-07-22T15:54:51.828Z,96489.95
2018-07-22T15:58:16.214Z,96480.62
2018-07-22T16:01:41.083Z,96482.25
2018-07-22T16:05:05.936Z,96479.44
2018-07-22T16:08:30.725Z,96484.91
2018-07-22T16:11:55.526Z,96481.26
2018-07-22T16:15:20.226Z,96478.13
2018-07-22T16:18:44.933Z,96478.63
2018-07-22T16:22:09.687Z,96473.96
2018-07-22T16:25:35.553Z,96479.37
2018-07-22T16:29:00.198Z,96476.99
2018-07-22T16:32:25.057Z,96482.95
2018-07-22T16:35:49.750Z,96486.63
2018-07-22T16:39:14.449Z,96484.50
2018-07-22T16:42:39.528Z,96494.50
2018-07-22T16:46:04.410Z,96497.43
2018-07-22T16:49:29.173Z,96505.09
2018-07-22T16:52:53.464Z,96501.09
2018-07-22T16:56:17.754Z,96504.23
2018-07-22T16:59:42.503Z,96513.00
2018-07-22T17:03:07.251Z,96514.01
2018-07-22T17:06:32.005Z,96508.81
2018-07-22T17:09:56.835Z,96508.55
2018-07-22T17:13:22.297Z,96508.62
2018-07-22T17:16:47.274Z,96505.00
2018-07-22T17:20:12.087Z,96511.34
2018-07-22T17:23:37.936Z,96513.67
2018-07-22T17:27:03.313Z,96521.73
2018-07-22T17:30:28.002Z,96523.27
2018-07-22T17:33:52.976Z,96522.25
2018-07-22T17:37:19.879Z,96520.18
2018-07-22T17:40:45.106Z,96531.67
2018-07-22T17:44:10.219Z,96535.15
2018-07-22T17:47:35.123Z,96536.22
2018-07-22T17:50:59.926Z,96538.06
2018-07-22T17:54:25.203Z,96536.79
2018-07-22T17:57:49.864Z,96537.31
2018-07-22T18:01:14.593Z,96538.33
2018-07-22T18:04:39.297Z,96544.41
2018-07-22T18:08:04.013Z,96545.81
2018-07-22T18:11:29.019Z,96559.92
2018-07-22T18:14:53.786Z,96558.97
2018-07-22T18:18:18.607Z,96561.10
2018-07-22T18:21:44.111Z,96559.66
2018-07-22T18:25:08.937Z,96568.33
2018-07-22T18:28:33.683Z,96567.19
2018-07-22T18:31:58.495Z,96571.98
2018-07-22T18:35:23.304Z,96572.84
2018-07-22T18:38:48.008Z,96574.13
2018-07-22T18:42:12.787Z,96575.41
2018-07-22T18:45:37.782Z,96577.91
2018-07-22T18:49:02.844Z,96580.58
2018-07-22T18:56:04.381Z,96581.20
2018-07-22T18:59:29.550Z,96589.88
2018-07-22T19:02:54.582Z,96593.19
2018-07-22T19:06:19.805Z,96604.81
2018-07-22T19:09:45.852Z,96609.75
2018-07-22T19:13:12.114Z,96600.45
2018-07-22T19:16:37.375Z,96608.58
2018-07-22T19:20:03.742Z,96610.68
2018-07-22T19:23:46.477Z,96622.77
2018-07-22T19:27:12.492Z,96625.97
2018-07-22T19:30:38.204Z,96631.00
2018-07-22T19:34:03.630Z,96639.20
2018-07-22T19:37:30.922Z,96634.76
2018-07-22T19:40:58.241Z,96639.64
2018-07-22T19:44:25.382Z,96647.06
2018-07-22T19:47:50.967Z,96651.68
2018-07-22T19:51:16.857Z,96648.01
2018-07-22T19:54:42.976Z,96653.00
2018-07-22T19:58:08.028Z,96658.62
2018-07-22T20:01:37.213Z,96657.19
2018-07-22T20:05:02.582Z,96670.56
2018-07-22T20:08:27.552Z,96668.56
2018-07-22T20:11:53.484Z,96673.45
2018-07-22T20:15:18.967Z,96676.08
2018-07-22T20:18:44.935Z,96687.09
2018-07-22T20:22:10.104Z,96691.04
2018-07-22T20:25:35.132Z,96687.58
2018-07-22T20:28:59.874Z,96690.49
2018-07-22T20:32:24.885Z,96681.83
2018-07-22T20:35:49.670Z,96688.41
2018-07-22T20:39:14.700Z,96684.38
2018-07-22T20:42:39.279Z,96682.64
2018-07-22T20:46:03.984Z,96684.20
2018-07-22T20:49:28.869Z,96692.90
2018-07-22T20:52:53.708Z,96693.56
2018-07-22T20:56:18.492Z,96694.00
2018-07-22T20:59:43.572Z,96688.73
2018-07-22T21:03:08.325Z,96689.61
2018-07-22T21:06:33.186Z,96689.80
2018-07-22T21:09:57.880Z,96691.52
2018-07-22T21:13:27.193Z,96687.59
2018-07-22T21:16:51.948Z,96691.03
2018-07-22T21:20:17.957Z,96700.03
2018-07-22T21:23:43.749Z,96698.77
2018-07-22T21:27:08.428Z,96697.20
2018-07-22T21:30:33.295Z,96694.05
2018-07-22T21:34:01.701Z,96692.06
2018-07-22T21:37:26.401Z,96692.23
2018-07-22T21:40:52.646Z,96695.41
2018-07-22T21:44:17.411Z,96693.45
2018-07-22T21:47:42.052Z,96688.21
2018-07-22T21:51:06.808Z,96684.05
2018-07-22T21:54:31.534Z,96682.16
2018-07-22T21:57:56.210Z,96685.62
2018-07-22T22:01:20.993Z,96692.98
2018-07-22T22:04:45.722Z,96685.67
2018-07-22T22:08:10.938Z,96684.33
2018-07-22T22:11:35.627Z,96691.75
2018-07-22T22:15:00.284Z,96691.27
2018-07-22T22:18:24.914Z,96693.77
2018-07-22T22:21:49.657Z,96695.11
2018-07-22T22:25:14.426Z,96691.45
2018-07-22T22:28:39.285Z,96694.88
2018-07-22T22:32:04.032Z,96690.70
2018-07-22T22:35:28.815Z,96690.38
2018-07-22T22:38:53.558Z,96678.30
2018-07-22T22:42:18.269Z,96681.51
2018-07-22T22:45:43.007Z,96676.62
2018-07-22T22:49:08.133Z,96683.45
2018-07-22T22:52:32.496Z,96680.38
2018-07-22T22:55:57.313Z,96683.66
2018-07-22T22:59:23.927Z,96684.58
2018-07-22T23:02:48.771Z,96682.39
2018-07-22T23:06:13.554Z,96682.31
2018-07-22T23:09:38.687Z,96680.59
2018-07-22T23:13:03.462Z,96691.67
2018-07-22T23:16:28.217Z,96685.75
2018-07-22T23:19:52.612Z,96681.28
2018-07-22T23:23:17.315Z,96681.23
2018-07-22T23:26:42.095Z,96686.55
2018-07-22T23:30:06.895Z,96690.70
2018-07-22T23:33:31.628Z,96689.94
2018-07-22T23:36:57.321Z,96682.45
2018-07-22T23:40:21.997Z,96683.99
2018-07-22T23:43:46.419Z,96689.86
2018-07-22T23:47:11.227Z,96682.82
2018-07-22T23:50:35.663Z,96683.88
2018-07-22T23:54:00.405Z,96683.41
2018-07-22T23:57:25.189Z,96676.49
